Time;durP1;ratioP1;P1;durP2;ratioP2;P2;SDS_P1;SDS_P2;PMS_P1;PMS_P2;Temp;Humidity;BMP_temperature;BMP_pressure;BME280_temperature;BME280_humidity;BME280_pressure;Samples;Min_cycle;Max_cycle;Signal;HPM_P1;HPM_P2
2020/12/23 00:01:21;;;;;;;24.77;14.05;;;;;;;-1.34;87.16;100608.64;1797194;77;21028;-46
2020/12/23 00:03:49;;;;;;;24.65;12.28;;;;;;;-1.35;87.18;100600.26;1797290;77;21004;-45
2020/12/23 00:09:10;;;;;;;26.97;13.22;;;;;;;-1.30;87.45;100601.20;1733151;79;22229;-52
2020/12/23 00:11:37;;;;;;;27.10;14.75;;;;;;;-1.39;87.61;100601.09;1697637;82;21176;-45
2020/12/23 00:14:05;;;;;;;28.87;14.60;;;;;;;-1.39;87.79;100603.73;1704397;82;21502;-46
2020/12/23 00:16:33;;;;;;;29.65;14.47;;;;;;;-1.40;87.86;100593.59;1704551;82;21018;-45
2020/12/23 00:19:00;;;;;;;25.02;14.68;;;;;;;-1.38;87.93;100596.28;1704111;82;21039;-45
2020/12/23 00:21:28;;;;;;;30.20;15.10;;;;;;;-1.36;88.01;100594.52;1702717;82;21472;-46
2020/12/23 00:23:56;;;;;;;31.77;15.53;;;;;;;-1.35;88.04;100590.56;1705104;82;20962;-53
2020/12/23 00:26:23;;;;;;;28.07;14.65;;;;;;;-1.37;88.15;100582.17;1703815;82;21389;-46
2020/12/23 00:28:51;;;;;;;35.88;15.85;;;;;;;-1.39;88.29;100589.18;1704158;82;21022;-45
2020/12/23 00:31:19;;;;;;;29.50;15.30;;;;;;;-1.39;88.47;100578.59;1696443;82;21049;-46
2020/12/23 00:33:46;;;;;;;29.37;15.80;;;;;;;-1.42;88.62;100578.59;1695041;82;21026;-46
2020/12/23 00:36:14;;;;;;;30.97;14.35;;;;;;;-1.41;88.72;100582.56;1695557;83;21148;-46
2020/12/23 00:38:43;;;;;;;28.02;14.18;;;;;;;-1.39;88.59;100570.66;1697545;83;21385;-47
2020/12/23 00:41:11;;;;;;;22.00;12.25;;;;;;;-1.39;88.39;100560.97;1693741;83;21148;-45
2020/12/23 00:43:39;;;;;;;22.93;12.18;;;;;;;-1.41;88.01;100556.55;1696499;83;21112;-46
2020/12/23 00:46:12;;;;;;;19.00;11.30;;;;;;;-1.39;87.90;100564.05;1696681;83;21036;-46
2020/12/23 00:48:41;;;;;;;23.98;13.08;;;;;;;-1.39;87.93;100561.41;1698042;83;21136;-52
2020/12/23 00:51:14;;;;;;;27.30;14.58;;;;;;;-1.36;87.95;100560.13;1696827;83;21368;-57
2020/12/23 00:53:42;;;;;;;26.62;14.05;;;;;;;-1.35;87.96;100542.05;1702925;83;21557;-44
2020/12/23 00:56:10;;;;;;;26.10;12.80;;;;;;;-1.37;87.88;100538.08;1696111;83;20947;-45
2020/12/23 00:58:38;;;;;;;25.17;14.23;;;;;;;-1.38;87.87;100532.78;1697266;83;21540;-46
2020/12/23 01:01:06;;;;;;;21.90;11.60;;;;;;;-1.37;87.84;100529.26;1700775;83;21155;-47
2020/12/23 01:03:35;;;;;;;19.00;10.50;;;;;;;-1.40;87.62;100517.31;1695478;83;21391;-46
2020/12/23 01:06:09;;;;;;;23.40;11.90;;;;;;;-1.46;87.49;100525.19;1699324;83;21188;-47
2020/12/23 01:08:37;;;;;;;18.45;9.78;;;;;;;-1.49;87.49;100527.38;1697690;83;21191;-46
2020/12/23 01:11:06;;;;;;;24.20;11.15;;;;;;;-1.48;87.46;100530.91;1691945;83;21156;-50
2020/12/23 01:13:34;;;;;;;19.85;10.35;;;;;;;-1.48;87.26;100512.39;1696371;83;21549;-50
2020/12/23 01:16:02;;;;;;;19.20;11.80;;;;;;;-1.48;87.07;100517.68;1694965;83;21209;-51
2020/12/23 01:18:30;;;;;;;22.02;11.43;;;;;;;-1.48;86.89;100511.06;1696821;83;21018;-46
2020/12/23 01:20:57;;;;;;;21.45;11.60;;;;;;;-1.50;86.74;100505.73;1695958;82;20990;-44
2020/12/23 01:23:25;;;;;;;23.75;12.03;;;;;;;-1.51;86.80;100500.44;1687800;83;21755;-46
2020/12/23 01:25:53;;;;;;;24.20;12.13;;;;;;;-1.50;86.71;100496.48;1693030;83;21026;-45
2020/12/23 01:28:21;;;;;;;21.68;12.18;;;;;;;-1.51;86.67;100499.12;1688816;83;22268;-45
2020/12/23 01:30:49;;;;;;;22.90;12.20;;;;;;;-1.51;86.78;100495.16;1692969;83;21136;-49
2020/12/23 01:33:16;;;;;;;19.95;11.90;;;;;;;-1.50;86.79;100490.30;1695805;83;21145;-52
2020/12/23 01:35:46;;;;;;;23.60;11.30;;;;;;;-1.49;86.75;100489.42;1693077;83;21450;-50
2020/12/23 01:38:13;;;;;;;21.65;11.70;;;;;;;-1.48;86.72;100479.33;1693565;83;20947;-55
2020/12/23 01:40:42;;;;;;;19.90;10.72;;;;;;;-1.47;86.58;100482.41;1690351;83;22260;-50
2020/12/23 01:43:10;;;;;;;21.95;12.18;;;;;;;-1.45;86.60;100476.69;1691871;83;21140;-46
2020/12/23 01:45:37;;;;;;;18.17;10.15;;;;;;;-1.43;86.51;100480.27;1690352;83;21051;-45
2020/12/23 01:48:16;;;;;;;21.57;11.50;;;;;;;-1.40;86.55;100481.59;1691999;83;21734;-45
2020/12/23 01:50:44;;;;;;;20.25;12.28;;;;;;;-1.35;86.54;100471.95;1696439;83;21138;-50
2020/12/23 01:53:12;;;;;;;23.07;12.70;;;;;;;-1.34;86.56;100468.42;1689222;83;22197;-50
2020/12/23 01:55:39;;;;;;;20.37;11.45;;;;;;;-1.31;86.59;100476.41;1665652;83;21602;-49
2020/12/23 01:58:08;;;;;;;24.02;14.00;;;;;;;-1.29;86.72;100462.73;1697071;83;21148;-45
2020/12/23 02:00:36;;;;;;;23.83;13.15;;;;;;;-1.26;86.70;100453.52;1692529;83;21250;-45
2020/12/23 02:03:06;;;;;;;25.82;12.75;;;;;;;-1.27;86.67;100457.05;1693451;83;21281;-46
2020/12/23 02:05:35;;;;;;;23.00;12.90;;;;;;;-1.25;86.62;100455.28;1692135;83;22247;-46
2020/12/23 02:08:03;;;;;;;21.07;12.18;;;;;;;-1.24;86.63;100446.47;1691521;83;21255;-47
2020/12/23 02:10:31;;;;;;;26.50;12.63;;;;;;;-1.21;86.66;100449.16;1693139;83;21164;-48
2020/12/23 02:13:00;;;;;;;21.65;12.23;;;;;;;-1.19;86.59;100434.16;1697392;83;21137;-51
2020/12/23 02:15:27;;;;;;;23.25;12.18;;;;;;;-1.16;86.47;100434.20;1695811;83;21624;-53
2020/12/23 02:17:55;;;;;;;24.60;13.58;;;;;;;-1.16;86.41;100426.27;1694895;83;21376;-52
2020/12/23 02:20:23;;;;;;;26.20;12.85;;;;;;;-1.15;86.48;100422.73;1694788;83;21597;-51
2020/12/23 02:22:51;;;;;;;26.62;13.88;;;;;;;-1.13;86.42;100423.63;1691585;83;21006;-45
2020/12/23 02:25:19;;;;;;;29.85;15.90;;;;;;;-1.09;86.38;100414.84;1691707;83;21165;-45
2020/12/23 02:27:46;;;;;;;28.42;14.60;;;;;;;-1.07;86.27;100402.93;1690293;82;21688;-50
2020/12/23 02:30:14;;;;;;;26.52;13.18;;;;;;;-1.09;86.10;100398.08;1690623;83;21772;-45
2020/12/23 02:32:42;;;;;;;34.50;14.38;;;;;;;-1.09;86.19;100404.25;1690987;83;21566;-45
2020/12/23 02:35:10;;;;;;;31.70;15.80;;;;;;;-1.12;86.22;100404.66;1691626;83;21011;-44
2020/12/23 02:37:38;;;;;;;34.05;16.35;;;;;;;-1.13;86.32;100407.74;1690566;83;21038;-45
2020/12/23 02:40:06;;;;;;;28.40;14.63;;;;;;;-1.14;86.41;100407.30;1694033;83;21144;-46
2020/12/23 02:42:33;;;;;;;29.05;15.75;;;;;;;-1.13;86.54;100395.83;1693009;83;21206;-46
2020/12/23 02:45:01;;;;;;;31.30;15.55;;;;;;;-1.12;86.58;100384.39;1700763;83;21534;-46
2020/12/23 02:47:29;;;;;;;29.65;15.75;;;;;;;-1.13;86.57;100381.27;1695012;83;21006;-46
2020/12/23 02:49:57;;;;;;;32.03;17.32;;;;;;;-1.13;86.59;100386.57;1691468;83;20974;-51
2020/12/23 02:52:24;;;;;;;34.10;16.27;;;;;;;-1.11;86.74;100376.91;1691536;83;21160;-56
2020/12/23 02:54:53;;;;;;;39.78;20.77;;;;;;;-1.08;86.75;100384.84;1694014;82;21179;-53
2020/12/23 02:57:21;;;;;;;44.03;18.70;;;;;;;-1.06;86.75;100380.47;1690502;83;21046;-53
2020/12/23 02:59:49;;;;;;;39.88;20.52;;;;;;;-1.04;86.88;100387.52;1662997;83;21117;-54
2020/12/23 03:02:16;;;;;;;40.05;20.00;;;;;;;-1.04;86.94;100379.58;1697187;83;21140;-45
2020/12/23 03:04:46;;;;;;;42.90;18.80;;;;;;;-1.04;86.96;100375.17;1692644;82;21180;-50
2020/12/23 03:07:13;;;;;;;41.02;20.25;;;;;;;-1.03;86.99;100373.41;1693144;83;21258;-46
2020/12/23 03:09:41;;;;;;;40.33;19.77;;;;;;;-1.07;86.97;100362.78;1695715;83;21161;-44
2020/12/23 03:12:09;;;;;;;42.43;21.17;;;;;;;-1.02;87.05;100372.52;1693911;83;21168;-44
2020/12/23 03:14:36;;;;;;;40.20;20.72;;;;;;;-1.01;86.90;100369.00;1696413;83;21521;-44
2020/12/23 03:17:04;;;;;;;39.98;20.25;;;;;;;-1.02;86.91;100364.14;1696530;83;21184;-50
2020/12/23 03:19:32;;;;;;;48.33;22.27;;;;;;;-1.02;86.92;100354.00;1694895;83;21372;-51
2020/12/23 03:22:00;;;;;;;39.40;20.92;;;;;;;-1.02;86.85;100352.67;1690577;83;21033;-49
2020/12/23 03:24:27;;;;;;;38.50;20.37;;;;;;;-1.04;86.87;100346.50;1697601;83;20997;-50
2020/12/23 03:26:55;;;;;;;42.38;21.90;;;;;;;-1.03;86.82;100354.88;1696038;83;21680;-50
2020/12/23 03:29:23;;;;;;;39.23;19.98;;;;;;;-1.01;86.81;100359.73;1699729;83;21137;-50
2020/12/23 03:31:50;;;;;;;38.13;19.05;;;;;;;-0.99;86.77;100350.94;1698378;83;22227;-49
2020/12/23 03:34:18;;;;;;;37.08;17.67;;;;;;;-0.99;86.65;100356.23;1695211;83;21154;-50
2020/12/23 03:36:45;;;;;;;39.30;19.98;;;;;;;-0.96;86.62;100354.03;1696177;83;21060;-45
2020/12/23 03:39:13;;;;;;;39.90;20.05;;;;;;;-0.97;86.49;100344.33;1697188;83;21152;-45
2020/12/23 03:41:40;;;;;;;36.30;19.23;;;;;;;-0.99;86.49;100350.06;1698673;83;21175;-46
2020/12/23 03:44:08;;;;;;;45.38;21.62;;;;;;;-0.96;86.58;100348.73;1695613;83;21586;-52
2020/12/23 03:46:36;;;;;;;44.67;20.75;;;;;;;-0.94;86.64;100347.00;1697133;83;21153;-50
2020/12/23 03:49:04;;;;;;;48.55;23.20;;;;;;;-0.93;86.67;100348.77;1697913;83;21521;-45
2020/12/23 03:51:32;;;;;;;45.98;22.82;;;;;;;-0.92;86.65;100341.27;1658424;85;21203;-46
2020/12/23 03:54:00;;;;;;;40.78;20.65;;;;;;;-0.89;86.58;100347.91;1649273;84;21164;-45
2020/12/23 03:56:28;;;;;;;39.30;19.05;;;;;;;-0.91;86.59;100347.00;1699104;83;22288;-46
2020/12/23 03:58:55;;;;;;;38.48;20.00;;;;;;;-0.96;86.74;100349.65;1693210;83;20966;-46
2020/12/23 04:01:23;;;;;;;39.40;19.32;;;;;;;-0.97;86.85;100344.33;1692537;82;20998;-51
2020/12/23 04:03:50;;;;;;;41.63;20.60;;;;;;;-0.94;87.00;100340.38;1689833;83;21144;-45
2020/12/23 04:06:18;;;;;;;39.20;19.80;;;;;;;-0.94;87.08;100337.73;1697487;83;21125;-51
2020/12/23 04:08:46;;;;;;;44.98;23.47;;;;;;;-0.93;87.13;100332.88;1690649;83;21593;-45
2020/12/23 04:11:13;;;;;;;37.70;19.65;;;;;;;-0.94;87.22;100325.83;1692236;83;21006;-45
2020/12/23 04:13:41;;;;;;;44.18;21.52;;;;;;;-0.95;87.30;100332.00;1688000;83;21124;-52
2020/12/23 04:16:09;;;;;;;44.88;23.00;;;;;;;-0.95;87.38;100332.00;1690757;83;21231;-45
2020/12/23 04:18:37;;;;;;;42.55;22.40;;;;;;;-0.97;87.42;100325.35;1695837;83;21125;-44
2020/12/23 04:21:05;;;;;;;36.90;21.52;;;;;;;-0.96;87.55;100330.20;1693347;83;21497;-53
2020/12/23 04:23:33;;;;;;;46.23;22.70;;;;;;;-0.96;87.53;100324.91;1692726;83;21145;-52
2020/12/23 04:26:01;;;;;;;36.38;19.60;;;;;;;-0.97;87.52;100316.09;1689241;83;20998;-49
2020/12/23 04:28:28;;;;;;;51.73;23.85;;;;;;;-0.99;87.58;100311.67;1694160;83;21141;-50
2020/12/23 04:30:56;;;;;;;45.08;20.27;;;;;;;-1.01;87.72;100304.14;1690389;83;21169;-50
2020/12/23 04:33:24;;;;;;;43.75;19.57;;;;;;;-1.00;87.75;100312.56;1697895;83;21204;-50
2020/12/23 04:35:53;;;;;;;37.75;19.50;;;;;;;-0.98;87.73;100313.44;1690094;83;21640;-50
2020/12/23 04:38:21;;;;;;;45.70;20.45;;;;;;;-0.99;87.81;100316.97;1693323;83;21581;-51
2020/12/23 04:40:49;;;;;;;34.13;19.15;;;;;;;-0.99;87.75;100319.62;1690179;83;21157;-46
2020/12/23 04:43:16;;;;;;;34.48;19.42;;;;;;;-1.00;87.82;100312.56;1688219;83;21508;-45
2020/12/23 04:45:44;;;;;;;48.30;21.15;;;;;;;-0.98;87.92;100316.09;1694881;83;21281;-45
2020/12/23 04:48:12;;;;;;;34.60;18.50;;;;;;;-0.98;87.92;100310.80;1685184;82;21625;-44
2020/12/23 04:50:43;;;;;;;34.05;17.90;;;;;;;-0.96;87.99;100319.61;1692822;83;21573;-52
2020/12/23 04:53:11;;;;;;;36.70;18.23;;;;;;;-0.96;87.94;100318.30;1665486;83;21001;-46
2020/12/23 04:55:41;;;;;;;38.48;20.55;;;;;;;-0.97;87.96;100311.23;1694779;83;21655;-52
2020/12/23 04:58:09;;;;;;;39.35;18.65;;;;;;;-0.99;87.99;100315.65;1694995;83;21651;-45
2020/12/23 05:00:36;;;;;;;42.70;21.55;;;;;;;-1.01;88.14;100316.05;1693575;83;21534;-46
2020/12/23 05:03:04;;;;;;;39.63;20.85;;;;;;;-1.00;88.17;100317.85;1698398;83;21266;-53
2020/12/23 05:05:32;;;;;;;37.05;20.08;;;;;;;-0.99;88.30;100317.85;1694340;83;21113;-46
2020/12/23 05:07:59;;;;;;;41.35;21.82;;;;;;;-0.98;88.26;100310.80;1695310;83;21676;-50
2020/12/23 05:13:05;;;;;;;42.03;21.62;;;;;;;-0.90;88.39;100307.77;1818953;76;22759;-45
2020/12/23 05:15:34;;;;;;;48.68;20.20;;;;;;;-0.96;88.45;100314.32;1809932;79;21525;-46
2020/12/23 05:18:03;;;;;;;40.30;20.45;;;;;;;-0.97;88.56;100317.85;1812614;77;21402;-54
2020/12/23 05:20:30;;;;;;;41.83;21.40;;;;;;;-0.95;88.58;100313.47;1812716;78;20978;-48
2020/12/23 05:22:58;;;;;;;46.10;23.38;;;;;;;-0.94;88.61;100313.47;1814022;77;21037;-55
2020/12/23 05:25:27;;;;;;;52.00;22.55;;;;;;;-0.94;88.65;100312.59;1813965;79;21059;-52
2020/12/23 05:27:55;;;;;;;40.17;20.20;;;;;;;-0.94;88.76;100316.56;1811672;77;21092;-48
2020/12/23 05:30:22;;;;;;;44.20;21.55;;;;;;;-0.95;88.86;100310.83;1733516;79;21295;-45
2020/12/23 05:32:50;;;;;;;46.98;21.35;;;;;;;-0.94;88.96;100305.97;1809911;79;21025;-47
2020/12/23 05:35:18;;;;;;;43.28;23.80;;;;;;;-0.93;89.02;100295.82;1757755;79;21663;-46
2020/12/23 05:37:46;;;;;;;46.40;22.48;;;;;;;-0.95;89.04;100294.94;1810756;77;21004;-46
2020/12/23 05:40:14;;;;;;;50.45;21.95;;;;;;;-0.95;89.16;100299.80;1810751;76;20974;-52
2020/12/23 05:42:41;;;;;;;42.70;21.17;;;;;;;-0.93;89.24;100299.80;1809317;77;21360;-53
2020/12/23 05:45:09;;;;;;;41.85;22.40;;;;;;;-0.94;89.21;100290.09;1778351;79;21592;-44
2020/12/23 05:47:37;;;;;;;44.48;23.10;;;;;;;-0.94;89.24;100292.73;1809210;79;21163;-52
2020/12/23 05:50:08;;;;;;;52.83;24.32;;;;;;;-0.96;89.29;100293.14;1809305;79;21009;-55
2020/12/23 05:52:36;;;;;;;47.33;25.53;;;;;;;-0.95;89.33;100284.35;1809627;78;21122;-52
2020/12/23 05:55:16;;;;;;;44.83;23.47;;;;;;;-0.95;89.33;100296.27;1809989;77;21261;-50
2020/12/23 05:57:44;;;;;;;50.98;22.95;;;;;;;-0.93;89.39;100287.87;1811115;77;21128;-52
2020/12/23 06:00:12;;;;;;;49.08;24.07;;;;;;;-0.92;89.38;100287.00;1809994;77;21734;-46
2020/12/23 06:02:51;;;;;;;49.73;23.70;;;;;;;-0.91;89.36;100280.81;1811382;77;21531;-46
2020/12/23 06:05:19;;;;;;;48.70;24.27;;;;;;;-0.92;89.39;100279.05;1811808;77;21186;-48
2020/12/23 06:07:48;;;;;;;47.70;24.32;;;;;;;-0.92;89.40;100279.05;1813532;79;21173;-45
2020/12/23 06:10:15;;;;;;;45.30;22.70;;;;;;;-0.93;89.47;100279.94;1814982;79;21140;-51
2020/12/23 06:12:47;;;;;;;42.33;23.45;;;;;;;-0.93;89.55;100274.64;1779516;79;21624;-48
2020/12/23 06:15:17;;;;;;;55.67;26.70;;;;;;;-0.94;89.59;100275.53;1813577;79;21171;-45
2020/12/23 06:17:45;;;;;;;47.65;25.02;;;;;;;-0.91;89.58;100273.76;1812749;77;21112;-47
2020/12/23 06:20:13;;;;;;;45.60;23.35;;;;;;;-0.90;89.49;100274.67;1810411;79;21362;-46
2020/12/23 06:25:17;;;;;;;49.83;28.67;;;;;;;-0.88;89.60;100275.55;1840584;76;28372;-46
2020/12/23 06:27:45;;;;;;;49.55;24.75;;;;;;;-0.91;89.65;100262.28;1835884;76;21163;-46
2020/12/23 06:30:13;;;;;;;49.27;23.62;;;;;;;-0.88;89.60;100274.22;1772101;77;21374;-47
2020/12/23 06:32:41;;;;;;;53.08;26.37;;;;;;;-0.89;89.61;100269.81;1799019;76;20966;-46
2020/12/23 06:35:09;;;;;;;48.45;24.80;;;;;;;-0.89;89.72;100269.81;1825986;76;20981;-46
2020/12/23 06:37:37;;;;;;;56.90;27.90;;;;;;;-0.89;89.75;100273.78;1832429;76;21092;-47
2020/12/23 06:40:09;;;;;;;53.92;26.23;;;;;;;-0.90;89.72;100267.61;1829202;76;21505;-52
2020/12/23 06:42:47;;;;;;;53.00;26.70;;;;;;;-0.91;89.78;100251.70;1827014;76;22012;-53
2020/12/23 06:45:15;;;;;;;50.40;25.08;;;;;;;-0.90;89.87;100236.28;1832032;76;21028;-50
2020/12/23 06:47:43;;;;;;;58.55;27.10;;;;;;;-0.92;89.85;100236.70;1835338;76;22019;-54
2020/12/23 06:50:17;;;;;;;62.78;29.37;;;;;;;-0.93;90.05;100236.26;1825753;76;20933;-53
2020/12/23 06:52:46;;;;;;;61.35;28.07;;;;;;;-0.93;90.26;100230.97;1837446;76;20946;-48
2020/12/23 06:55:16;;;;;;;60.78;27.62;;;;;;;-0.92;90.35;100226.11;1835982;76;21723;-47
2020/12/23 06:57:46;;;;;;;58.98;26.17;;;;;;;-0.91;90.21;100233.16;1830491;76;21010;-49
2020/12/23 07:00:19;;;;;;;55.12;25.85;;;;;;;-0.93;90.20;100237.58;1836071;76;21537;-52
2020/12/23 07:03:04;;;;;;;51.88;27.00;;;;;;;-0.92;90.29;100244.64;1824502;76;21542;-52
2020/12/23 07:05:40;;;;;;;51.70;25.40;;;;;;;-0.92;90.34;100249.93;1826976;76;20982;-53
2020/12/23 07:08:13;;;;;;;58.75;29.55;;;;;;;-0.88;90.42;100262.31;1829387;76;21358;-47
2020/12/23 07:10:47;;;;;;;52.13;23.95;;;;;;;-0.88;90.38;100249.08;1822628;76;20953;-48
2020/12/23 07:13:19;;;;;;;55.78;28.23;;;;;;;-0.86;90.39;100260.09;1822961;76;21576;-48
2020/12/23 07:15:57;;;;;;;54.13;26.93;;;;;;;-0.78;90.33;100258.83;1858485;74;22547;-46
2020/12/23 07:18:31;;;;;;;59.77;27.10;;;;;;;-0.83;90.22;100252.62;1826385;75;21057;-46
2020/12/23 07:21:02;;;;;;;54.58;25.35;;;;;;;-0.84;90.24;100258.80;1823114;77;21383;-49
2020/12/23 07:23:31;;;;;;;56.88;25.90;;;;;;;-0.85;90.32;100258.37;1823910;77;20946;-49
2020/12/23 07:26:04;;;;;;;52.67;25.15;;;;;;;-0.86;90.25;100261.86;1827032;76;21027;-50
2020/12/23 07:28:41;;;;;;;55.63;25.65;;;;;;;-0.82;90.36;100245.13;1847425;74;22692;-49
2020/12/23 07:31:10;;;;;;;57.98;25.45;;;;;;;-0.86;90.31;100253.92;1826021;77;21074;-55
2020/12/23 07:33:39;;;;;;;59.60;25.75;;;;;;;-0.87;90.39;100244.22;1824593;77;21358;-49
2020/12/23 07:36:08;;;;;;;53.25;24.32;;;;;;;-0.85;90.39;100239.83;1826235;77;20977;-59
2020/12/23 07:38:40;;;;;;;56.48;26.25;;;;;;;-0.84;90.31;100236.30;1825954;77;20976;-53
2020/12/23 07:41:13;;;;;;;58.17;28.27;;;;;;;-0.82;90.37;100238.50;1826411;77;20961;-51
2020/12/23 07:43:41;;;;;;;54.77;25.95;;;;;;;-0.77;90.47;100235.43;1788988;78;20971;-54
2020/12/23 07:46:09;;;;;;;56.00;25.12;;;;;;;-0.72;90.38;100240.30;1786304;79;21411;-53
2020/12/23 07:48:37;;;;;;;46.98;23.50;;;;;;;-0.70;90.18;100231.91;1757748;78;20962;-52
2020/12/23 07:51:05;;;;;;;48.78;24.77;;;;;;;-0.68;90.04;100236.80;1789067;78;21414;-53
2020/12/23 07:53:32;;;;;;;58.95;25.92;;;;;;;-0.67;89.91;100241.20;1702421;79;21169;-59
2020/12/23 07:56:02;;;;;;;47.43;24.63;;;;;;;-0.67;89.88;100243.85;1788099;79;20995;-56
2020/12/23 07:58:30;;;;;;;52.50;23.32;;;;;;;-0.66;89.87;100231.05;1787675;78;21148;-57
2020/12/23 08:00:58;;;;;;;46.48;22.42;;;;;;;-0.66;89.73;100229.73;1787463;79;21522;-61
2020/12/23 08:03:30;;;;;;;52.38;25.30;;;;;;;-0.67;89.71;100231.94;1787238;78;21171;-57
2020/12/23 08:06:10;;;;;;;47.33;22.98;;;;;;;-0.66;89.88;100213.83;1788150;78;20947;-62
2020/12/23 08:08:40;;;;;;;47.23;23.43;;;;;;;-0.68;89.84;100215.61;1788415;79;21128;-54
2020/12/23 08:11:15;;;;;;;49.35;24.47;;;;;;;-0.68;90.01;100220.91;1763557;80;22112;-61
2020/12/23 08:13:43;;;;;;;52.80;22.87;;;;;;;-0.68;90.25;100220.91;1763293;78;21740;-63
2020/12/23 08:16:12;;;;;;;47.48;23.60;;;;;;;-0.67;90.40;100222.67;1788442;79;21003;-63
2020/12/23 08:18:41;;;;;;;54.13;25.25;;;;;;;-0.68;90.55;100216.93;1788532;78;21084;-54
2020/12/23 08:21:19;;;;;;;44.53;23.45;;;;;;;-0.67;90.65;100209.42;1788028;78;20958;-60
2020/12/23 08:23:47;;;;;;;52.60;22.48;;;;;;;-0.66;90.67;100211.19;1791689;78;21369;-63
2020/12/23 08:26:14;;;;;;;47.93;21.45;;;;;;;-0.68;90.64;100211.64;1785138;78;21014;-57
2020/12/23 08:28:44;;;;;;;46.63;23.42;;;;;;;-0.66;90.87;100205.89;1730185;80;21590;-60
2020/12/23 08:31:16;;;;;;;45.78;22.35;;;;;;;-0.65;90.98;100212.95;1754367;80;21532;-52
2020/12/23 08:33:44;;;;;;;;;;;;;;;-0.63;91.24;100203.70;1757291;80;21015;-57
2020/12/23 08:36:12;;;;;;;45.48;21.50;;;;;;;-0.61;91.12;100209.44;1735023;81;21435;-54
2020/12/23 08:38:41;;;;;;;49.50;23.47;;;;;;;-0.61;91.35;100204.14;1685597;81;21551;-50
2020/12/23 08:41:14;;;;;;;51.30;25.57;;;;;;;-0.62;91.49;100207.67;1734937;81;21152;-58
2020/12/23 08:43:45;;;;;;;44.77;22.60;;;;;;;-0.63;91.89;100204.59;1755022;80;21583;-58
2020/12/23 08:46:24;;;;;;;44.98;22.22;;;;;;;-0.65;92.22;100205.00;1755290;80;21125;-63
2020/12/23 08:48:53;;;;;;;40.58;21.27;;;;;;;-0.64;92.62;100196.20;1756524;80;21536;-53
2020/12/23 08:51:22;;;;;;;47.75;24.27;;;;;;;-0.66;92.89;100195.30;1754730;80;21185;-53
2020/12/23 08:53:54;;;;;;;45.35;22.35;;;;;;;-0.66;93.28;100186.02;1756024;80;21085;-53
2020/12/23 08:56:31;;;;;;;50.08;23.77;;;;;;;-0.66;93.57;100188.67;1756824;80;21153;-52
2020/12/23 08:59:06;;;;;;;42.25;24.00;;;;;;;-0.66;93.94;100193.97;1756307;80;21088;-50
2020/12/23 09:01:35;;;;;;;53.45;24.98;;;;;;;-0.67;94.36;100186.91;1757213;80;21342;-54
2020/12/23 09:04:10;;;;;;;55.17;23.75;;;;;;;-0.67;94.61;100185.59;1756245;80;21617;-56
2020/12/23 09:06:47;;;;;;;38.63;21.25;;;;;;;-0.61;95.01;100185.59;1812898;77;22691;-52
2020/12/23 09:09:18;;;;;;;46.13;23.12;;;;;;;-0.66;95.24;100184.70;1805788;77;21033;-54
2020/12/23 09:11:48;;;;;;;56.28;24.98;;;;;;;-0.69;95.75;100175.85;1761046;80;22074;-53
2020/12/23 09:14:34;;;;;;;53.73;24.80;;;;;;;-0.73;96.16;100174.98;1749234;80;21002;-54
2020/12/23 09:17:19;;;;;;;51.08;25.17;;;;;;;-0.67;97.04;100161.75;1841985;76;22751;-61
2020/12/23 09:19:56;;;;;;;48.87;24.25;;;;;;;-0.75;97.51;100162.16;1813534;77;20992;-56
2020/12/23 09:22:35;;;;;;;47.13;22.95;;;;;;;-0.79;97.80;100157.77;1815715;77;21394;-56
2020/12/23 09:25:25;;;;;;;49.05;25.05;;;;;;;-0.79;98.27;100153.80;1814908;77;21652;-54
2020/12/23 09:28:08;;;;;;;45.00;22.70;;;;;;;-0.76;98.69;100155.11;1814362;78;21711;-57
2020/12/23 09:30:48;;;;;;;50.28;23.87;;;;;;;-0.70;99.10;100137.91;1822762;76;22734;-59
2020/12/23 09:33:24;;;;;;;48.00;22.52;;;;;;;-0.74;99.42;100146.75;1786756;77;21076;-64
2020/12/23 09:35:56;;;;;;;45.90;23.42;;;;;;;-0.75;99.83;100129.06;1761868;78;22237;-66
2020/12/23 09:38:34;;;;;;;44.45;22.70;;;;;;;-0.69;100.00;100129.10;1797360;78;22779;-60
2020/12/23 09:41:05;;;;;;;42.85;23.10;;;;;;;-0.73;100.00;100122.02;1747512;79;21167;-52
2020/12/23 09:43:35;;;;;;;47.65;23.35;;;;;;;-0.71;100.00;100120.25;1748903;79;21421;-58
2020/12/23 09:46:05;;;;;;;41.08;21.23;;;;;;;-0.71;100.00;100116.28;1748135;79;20997;-57
2020/12/23 09:48:33;;;;;;;45.83;24.40;;;;;;;-0.68;100.00;100113.65;1756866;79;20984;-58
2020/12/23 09:51:01;;;;;;;47.40;24.37;;;;;;;-0.65;100.00;100114.95;1753005;80;21001;-58
2020/12/23 09:53:29;;;;;;;45.45;23.00;;;;;;;-0.62;100.00;100117.62;1752495;79;20970;-56
2020/12/23 09:55:58;;;;;;;44.93;22.80;;;;;;;-0.60;100.00;100101.72;1754509;79;21021;-56
2020/12/23 09:58:27;;;;;;;40.92;22.10;;;;;;;-0.59;100.00;100101.71;1751341;80;21021;-57
2020/12/23 10:00:55;;;;;;;40.88;20.30;;;;;;;-0.59;100.00;100093.77;1750472;79;21049;-59
2020/12/23 10:03:22;;;;;;;38.20;19.77;;;;;;;-0.54;100.00;100097.74;1754975;80;21702;-55
2020/12/23 10:05:50;;;;;;;44.20;21.93;;;;;;;-0.55;100.00;100095.54;1750610;79;21152;-61
2020/12/23 10:08:18;;;;;;;46.70;22.80;;;;;;;-0.49;100.00;100099.08;1751040;79;21143;-64
2020/12/23 10:10:46;;;;;;;48.65;24.12;;;;;;;-0.48;100.00;100090.23;1752123;79;20981;-52
2020/12/23 10:13:15;;;;;;;45.73;23.27;;;;;;;-0.48;100.00;100087.59;1713681;82;21155;-63
2020/12/23 10:15:46;;;;;;;43.33;21.90;;;;;;;-0.49;100.00;100080.09;1684214;82;21543;-56
2020/12/23 10:18:14;;;;;;;39.13;20.57;;;;;;;-0.49;100.00;100081.41;1716764;81;20997;-59
2020/12/23 10:20:42;;;;;;;36.80;21.00;;;;;;;-0.47;100.00;100069.52;1688913;83;22308;-55
2020/12/23 10:23:10;;;;;;;40.65;21.87;;;;;;;-0.45;100.00;100073.03;1716665;81;21539;-51
2020/12/23 10:25:39;;;;;;;40.75;22.02;;;;;;;-0.46;100.00;100064.20;1716837;81;20997;-50
2020/12/23 10:28:07;;;;;;;42.75;22.27;;;;;;;-0.44;100.00;100062.87;1693088;83;21156;-59
2020/12/23 10:30:35;;;;;;;40.85;20.10;;;;;;;-0.43;100.00;100055.35;1691403;82;20987;-59
2020/12/23 10:33:04;;;;;;;46.58;22.93;;;;;;;-0.44;100.00;100058.89;1713575;81;21696;-63
2020/12/23 10:35:33;;;;;;;34.27;17.80;;;;;;;-0.44;100.00;100054.92;1689875;82;21153;-60
2020/12/23 10:38:01;;;;;;;39.13;20.65;;;;;;;-0.44;100.00;100060.22;1706449;81;21029;-63
2020/12/23 10:40:29;;;;;;;34.13;18.20;;;;;;;-0.45;100.00;100054.48;1688370;82;21038;-56
2020/12/23 10:42:57;;;;;;;36.40;20.52;;;;;;;-0.44;100.00;100052.27;1743893;79;21139;-59
2020/12/23 10:45:24;;;;;;;39.92;19.60;;;;;;;-0.45;100.00;100053.16;1743289;80;22253;-58
2020/12/23 10:47:52;;;;;;;39.27;19.32;;;;;;;-0.46;100.00;100044.34;1740910;79;21648;-56
2020/12/23 10:50:20;;;;;;;36.13;19.02;;;;;;;-0.46;100.00;100051.41;1742410;79;21151;-60
2020/12/23 10:52:48;;;;;;;34.45;18.82;;;;;;;-0.45;100.00;100043.89;1746392;81;21167;-54
2020/12/23 10:55:16;;;;;;;35.88;18.20;;;;;;;-0.47;100.00;100041.70;1738263;80;21013;-50
2020/12/23 10:57:45;;;;;;;38.83;19.45;;;;;;;-0.48;100.00;100027.58;1741383;79;22264;-53
2020/12/23 11:00:13;;;;;;;35.78;17.40;;;;;;;-0.46;100.00;100032.86;1739803;79;21092;-54
2020/12/23 11:02:41;;;;;;;39.73;19.37;;;;;;;-0.47;100.00;100021.83;1738162;79;21125;-56
2020/12/23 11:05:11;;;;;;;35.80;19.52;;;;;;;-0.46;100.00;100024.47;1741952;79;21169;-59
2020/12/23 11:07:39;;;;;;;32.80;19.30;;;;;;;-0.44;100.00;100024.01;1741405;79;21112;-52
2020/12/23 11:10:09;;;;;;;32.60;18.12;;;;;;;-0.41;100.00;100020.48;1741934;80;21271;-51
2020/12/23 11:12:37;;;;;;;35.20;19.62;;;;;;;-0.36;100.00;100021.37;1739342;80;21565;-50
2020/12/23 11:15:04;;;;;;;36.08;18.57;;;;;;;-0.34;100.00;100020.91;1738512;79;21188;-52
2020/12/23 11:17:33;;;;;;;33.78;19.60;;;;;;;-0.34;100.00;100012.95;1738044;80;21630;-62
2020/12/23 11:20:01;;;;;;;36.08;19.27;;;;;;;-0.32;100.00;100020.45;1738810;79;21196;-54
2020/12/23 11:22:29;;;;;;;36.95;20.17;;;;;;;-0.32;100.00;100017.80;1742039;79;21558;-51
2020/12/23 11:24:59;;;;;;;35.75;20.15;;;;;;;-0.31;100.00;100014.30;1737403;79;21564;-50
2020/12/23 11:27:26;;;;;;;35.83;19.30;;;;;;;-0.31;100.00;100015.62;1742724;79;21194;-50